WetterOnline ( https://www.wetteronline.de )

Wetter aktuell Verona

Aktuelles Wetter: Ghedi (97m)

6-stündlich | Neueste Meldungen
Ortszeit Temperatur Wetter
Mo, 21.10. 2:00 18.0° C leichter Regen
So, 20.10. 20:00 20.0° C wolkig
So, 20.10. 14:00 21.3° C wolkig
So, 20.10. 8:00 16.0° C leicht bewölkt
So, 20.10. 2:00 17.8° C wolkig
Sa, 19.10. 20:00 18.0° C wolkig
Sa, 19.10. 14:00 17.1° C wolkig
Sa, 19.10. 8:00 16.0° C leichter Regen
Ortszeit Temperatur Wetter
Mo, 21.10. 4:00 18.0° C wolkig, nach Regen
Mo, 21.10. 3:55 18° C leicht bewölkt
Mo, 21.10. 3:00 18.0° C leichter Regen
Mo, 21.10. 2:55 18° C leichter Regen
Mo, 21.10. 2:00 18.0° C leichter Regen
Mo, 21.10. 1:55 18° C leichter Regen
Mo, 21.10. 0:00 18.0° C wolkig
Ortszeit Relative Feuchte Sichtweite
Mo, 21.10. 2:00 85% 5.0 km
So, 20.10. 20:00 74% 10 km
So, 20.10. 14:00 65% 20 km
So, 20.10. 8:00 88% 10 km
So, 20.10. 2:00 80% 10 km
Sa, 19.10. 20:00 71% 10 km
Sa, 19.10. 14:00 80% 5.0 km
Sa, 19.10. 8:00 84% 10 km
Ortszeit Relative Feuchte Sichtweite
Mo, 21.10. 4:00 83% 6 km
Mo, 21.10. 3:55 83% 6 km
Mo, 21.10. 3:00 84% 5.0 km
Mo, 21.10. 2:55 83% 5.0 km
Mo, 21.10. 2:00 85% 5.0 km
Mo, 21.10. 1:55 83% 5.0 km
Mo, 21.10. 0:00 85% 5.0 km
Ortszeit Niederschlagsmenge Niederschlagsart
Mo, 21.10. 2:00 3 l/m2 in 6 Std. Regen
So, 20.10. 20:00 0.0 l/m2 in 12 Std. -
So, 20.10. 14:00 0.0 l/m2 in 6 Std. -
So, 20.10. 8:00 0.0 l/m2 in 12 Std. -
So, 20.10. 2:00 0.0 l/m2 in 6 Std. -
Sa, 19.10. 20:00 2 l/m2 in 12 Std. -
Sa, 19.10. 14:00 2 l/m2 in 6 Std. Regen
Sa, 19.10. 8:00 1 l/m2 in 12 Std. Regen
Ortszeit Niederschlagsmenge Niederschlagsart
Mo, 21.10. 4:00 keine Meldung -
Mo, 21.10. 3:55 keine Meldung -
Mo, 21.10. 3:00 keine Meldung -
Mo, 21.10. 2:55 keine Meldung -
Mo, 21.10. 2:00 keine Meldung -
Mo, 21.10. 1:55 keine Meldung -
Mo, 21.10. 0:00 keine Meldung -
Ortszeit Stärke Spitze Richtung
km/h Bft. km/h Grad Sektor
Mo, 21.10. 2:00 15 3 - 70° O
So, 20.10. 20:00 17 3 - 80° O
So, 20.10. 14:00 15 3 - 130° SO
So, 20.10. 8:00 13 3 - 90° O
So, 20.10. 2:00 9 2 - 90° O
Sa, 19.10. 20:00 11 2 - 70° O
Sa, 19.10. 14:00 17 3 - 70° O
Sa, 19.10. 8:00 9 2 - 90° O
Ortszeit Stärke Spitze Richtung
km/h Bft. km/h Grad Sektor
Mo, 21.10. 4:00 17 3 - 70° O
Mo, 21.10. 3:55 17 3 - 70° O
Mo, 21.10. 3:00 19 3 - 80° O
Mo, 21.10. 2:55 19 3 - 80° O
Mo, 21.10. 2:00 15 3 - 70° O
Mo, 21.10. 1:55 15 3 - 70° O
Mo, 21.10. 0:00 13 3 - 80° O
Ortszeit Untergrenze Bedeckung Gattung
total tief tief mittel hoch
Mo, 21.10. 2:00 900 m 7/8 6/8 Cu As -
So, 20.10. 20:00 1500 m 6/8 3/8 Sc Ac -
So, 20.10. 14:00 1200 m 6/8 3/8 Cu Ac -
So, 20.10. 8:00 1500 m 4/8 2/8 Sc Ac -
So, 20.10. 2:00 1500 m 6/8 2/8 Sc Ac -
Sa, 19.10. 20:00 1350 m 6/8 3/8 Sc Ac -
Sa, 19.10. 14:00 1050 m 7/8 2/8 Cu Ac -
Sa, 19.10. 8:00 1800 m 7/8 7/8 - Ac -
Ortszeit Bedeckungsgrad in Achtel und Wolkenuntergrenze
Mo, 21.10. 4:00 1(900m) 3(1350m)
Mo, 21.10. 3:55 1-2(900m) 3-4(1350m)
Mo, 21.10. 3:00 3(900m) 3(1350m)
Mo, 21.10. 2:55 3-4(900m) 3-4(1350m)
Mo, 21.10. 2:00 3(900m) 3(1200m)
Mo, 21.10. 1:55 3-4(900m) 3-4(1200m)
Mo, 21.10. 0:00 2(900m) 3(1200m)
Ortszeit Luftdruck NN (hPa) Tendenz (hPa in 3 Std.)
Mo, 21.10. 2:00 1018 - 0,1
So, 20.10. 20:00 1017 + 0,2
So, 20.10. 14:00 1017 - 0,2
So, 20.10. 8:00 1016 + 0,5
So, 20.10. 2:00 1016 + 0,3
Sa, 19.10. 20:00 1015 + 0,4
Sa, 19.10. 14:00 1015 - 0,3
Sa, 19.10. 8:00 1015 - 1,0
Ortszeit Luftdruck NN (hPa) Tendenz (hPa in 3 Std.)
Mo, 21.10. 4:00 1017 - 1,4
Mo, 21.10. 3:55 1017 keine Meldung
Mo, 21.10. 3:00 1018 - 0,8
Mo, 21.10. 2:55 1018 keine Meldung
Mo, 21.10. 2:00 1018 - 0,1
Mo, 21.10. 1:55 1018 keine Meldung
Mo, 21.10. 0:00 1019 + 1,7
Ortszeit Schneehöhe (cm)
Mo, 21.10. 2:00 -
So, 20.10. 20:00 -
So, 20.10. 14:00 -
So, 20.10. 8:00 0
So, 20.10. 2:00 -
Sa, 19.10. 20:00 -
Sa, 19.10. 14:00 -
Sa, 19.10. 8:00 0
Ortszeit Schneehöhe (cm)
Mo, 21.10. 4:00 -
Mo, 21.10. 3:55 -
Mo, 21.10. 3:00 -
Mo, 21.10. 2:55 -
Mo, 21.10. 2:00 -
Mo, 21.10. 1:55 -
Mo, 21.10. 0:00 -
Link zu dieser Seite / Seite empfehlen

Das Wetter in ...